sensor_id;sensor_type;location;lat;lon;timestamp;temperature;humidity
74923;HTU21D;64715;44.760;37.678;2023-07-31T00:00:54;22.73;61.56
74923;HTU21D;64715;44.760;37.678;2023-07-31T00:01:55;22.73;61.86
74923;HTU21D;64715;44.760;37.678;2023-07-31T00:02:55;22.72;61.99
74923;HTU21D;64715;44.760;37.678;2023-07-31T00:03:56;22.71;62.20
74923;HTU21D;64715;44.760;37.678;2023-07-31T00:04:58;22.70;62.63
74923;HTU21D;64715;44.760;37.678;2023-07-31T00:05:59;22.69;62.73
74923;HTU21D;64715;44.760;37.678;2023-07-31T00:07:00;22.70;62.60
74923;HTU21D;64715;44.760;37.678;2023-07-31T00:08:01;22.69;62.88
74923;HTU21D;64715;44.760;37.678;2023-07-31T00:09:03;22.69;63.00
74923;HTU21D;64715;44.760;37.678;2023-07-31T00:10:04;22.67;62.99
74923;HTU21D;64715;44.760;37.678;2023-07-31T00:11:05;22.67;63.06
74923;HTU21D;64715;44.760;37.678;2023-07-31T00:12:06;22.67;63.22
74923;HTU21D;64715;44.760;37.678;2023-07-31T00:13:07;22.66;63.40
74923;HTU21D;64715;44.760;37.678;2023-07-31T00:14:08;22.65;63.77
74923;HTU21D;64715;44.760;37.678;2023-07-31T00:15:09;22.65;64.01
74923;HTU21D;64715;44.760;37.678;2023-07-31T00:16:11;22.63;64.08
74923;HTU21D;64715;44.760;37.678;2023-07-31T00:17:12;22.63;64.28
74923;HTU21D;64715;44.760;37.678;2023-07-31T00:18:13;22.62;64.34
74923;HTU21D;64715;44.760;37.678;2023-07-31T00:19:14;22.58;64.56
74923;HTU21D;64715;44.760;37.678;2023-07-31T00:20:15;22.58;64.88
74923;HTU21D;64715;44.760;37.678;2023-07-31T00:21:16;22.55;65.32
74923;HTU21D;64715;44.760;37.678;2023-07-31T00:22:17;22.55;65.58
74923;HTU21D;64715;44.760;37.678;2023-07-31T00:23:18;22.53;65.75
74923;HTU21D;64715;44.760;37.678;2023-07-31T00:24:19;22.53;66.01
74923;HTU21D;64715;44.760;37.678;2023-07-31T00:25:20;22.51;65.95
74923;HTU21D;64715;44.760;37.678;2023-07-31T00:26:21;22.50;66.27
74923;HTU21D;64715;44.760;37.678;2023-07-31T00:27:21;22.49;66.40
74923;HTU21D;64715;44.760;37.678;2023-07-31T00:28:24;22.49;66.49
74923;HTU21D;64715;44.760;37.678;2023-07-31T00:29:25;22.46;66.53
74923;HTU21D;64715;44.760;37.678;2023-07-31T00:30:26;22.46;66.62
74923;HTU21D;64715;44.760;37.678;2023-07-31T00:31:28;22.44;66.81
74923;HTU21D;64715;44.760;37.678;2023-07-31T00:32:29;22.42;66.90
74923;HTU21D;64715;44.760;37.678;2023-07-31T00:33:31;22.41;67.10
74923;HTU21D;64715;44.760;37.678;2023-07-31T00:34:32;22.40;67.10
74923;HTU21D;64715;44.760;37.678;2023-07-31T00:35:33;22.39;67.23
74923;HTU21D;64715;44.760;37.678;2023-07-31T00:36:34;22.35;67.41
74923;HTU21D;64715;44.760;37.678;2023-07-31T00:37:35;22.35;67.54
74923;HTU21D;64715;44.760;37.678;2023-07-31T00:38:37;22.33;67.75
74923;HTU21D;64715;44.760;37.678;2023-07-31T00:39:38;22.32;67.78
74923;HTU21D;64715;44.760;37.678;2023-07-31T00:40:39;22.32;67.92
74923;HTU21D;64715;44.760;37.678;2023-07-31T00:41:41;22.32;68.14
74923;HTU21D;64715;44.760;37.678;2023-07-31T00:42:41;22.32;68.42
74923;HTU21D;64715;44.760;37.678;2023-07-31T00:43:42;22.31;68.68
74923;HTU21D;64715;44.760;37.678;2023-07-31T00:44:43;22.29;68.69
74923;HTU21D;64715;44.760;37.678;2023-07-31T00:45:44;22.29;68.75
74923;HTU21D;64715;44.760;37.678;2023-07-31T00:46:45;22.27;68.68
74923;HTU21D;64715;44.760;37.678;2023-07-31T00:47:46;22.29;68.86
74923;HTU21D;64715;44.760;37.678;2023-07-31T00:48:48;22.27;68.94
74923;HTU21D;64715;44.760;37.678;2023-07-31T00:49:49;22.27;68.94
74923;HTU21D;64715;44.760;37.678;2023-07-31T00:50:51;22.26;69.23
74923;HTU21D;64715;44.760;37.678;2023-07-31T00:51:52;22.25;69.18
74923;HTU21D;64715;44.760;37.678;2023-07-31T00:52:53;22.23;69.39
74923;HTU21D;64715;44.760;37.678;2023-07-31T00:53:55;22.22;69.52
74923;HTU21D;64715;44.760;37.678;2023-07-31T00:54:56;22.22;69.61
74923;HTU21D;64715;44.760;37.678;2023-07-31T00:55:58;22.21;69.70
74923;HTU21D;64715;44.760;37.678;2023-07-31T00:56:59;22.20;69.76
74923;HTU21D;64715;44.760;37.678;2023-07-31T00:58:02;22.17;69.62
74923;HTU21D;64715;44.760;37.678;2023-07-31T00:59:03;22.17;69.92
74923;HTU21D;64715;44.760;37.678;2023-07-31T01:00:07;22.18;69.84
74923;HTU21D;64715;44.760;37.678;2023-07-31T01:01:08;22.17;70.02
74923;HTU21D;64715;44.760;37.678;2023-07-31T01:02:10;22.14;70.22
74923;HTU21D;64715;44.760;37.678;2023-07-31T01:03:11;22.14;70.22
74923;HTU21D;64715;44.760;37.678;2023-07-31T01:04:13;22.13;70.20
74923;HTU21D;64715;44.760;37.678;2023-07-31T01:05:14;22.12;70.39
74923;HTU21D;64715;44.760;37.678;2023-07-31T01:06:19;22.11;70.40
74923;HTU21D;64715;44.760;37.678;2023-07-31T01:07:56;22.11;70.29
74923;HTU21D;64715;44.760;37.678;2023-07-31T01:09:47;22.09;70.27
74923;HTU21D;64715;44.760;37.678;2023-07-31T01:10:35;22.07;70.22
74923;HTU21D;64715;44.760;37.678;2023-07-31T01:11:50;22.05;70.43
74923;HTU21D;64715;44.760;37.678;2023-07-31T01:12:53;22.04;70.43
74923;HTU21D;64715;44.760;37.678;2023-07-31T01:13:55;22.04;70.79
74923;HTU21D;64715;44.760;37.678;2023-07-31T01:15:04;22.04;70.79
74923;HTU21D;64715;44.760;37.678;2023-07-31T01:16:06;22.04;70.88
74923;HTU21D;64715;44.760;37.678;2023-07-31T01:17:07;22.03;71.02
74923;HTU21D;64715;44.760;37.678;2023-07-31T01:18:08;22.02;70.89
74923;HTU21D;64715;44.760;37.678;2023-07-31T01:19:11;22.02;71.02
74923;HTU21D;64715;44.760;37.678;2023-07-31T01:20:21;22.02;70.99
74923;HTU21D;64715;44.760;37.678;2023-07-31T01:26:26;21.96;70.53
74923;HTU21D;64715;44.760;37.678;2023-07-31T01:27:31;21.95;70.53
74923;HTU21D;64715;44.760;37.678;2023-07-31T01:30:05;21.96;69.90
74923;HTU21D;64715;44.760;37.678;2023-07-31T01:31:16;21.98;69.65
74923;HTU21D;64715;44.760;37.678;2023-07-31T01:32:18;22.02;69.37
74923;HTU21D;64715;44.760;37.678;2023-07-31T01:33:20;22.04;69.42
74923;HTU21D;64715;44.760;37.678;2023-07-31T01:34:22;22.07;69.26
74923;HTU21D;64715;44.760;37.678;2023-07-31T01:35:23;22.09;68.93
74923;HTU21D;64715;44.760;37.678;2023-07-31T01:36:25;22.12;68.44
74923;HTU21D;64715;44.760;37.678;2023-07-31T01:37:29;22.18;68.02
74923;HTU21D;64715;44.760;37.678;2023-07-31T01:38:31;22.24;67.75
74923;HTU21D;64715;44.760;37.678;2023-07-31T01:39:32;22.28;67.59
74923;HTU21D;64715;44.760;37.678;2023-07-31T01:40:33;22.31;67.29
74923;HTU21D;64715;44.760;37.678;2023-07-31T01:41:34;22.34;67.00
74923;HTU21D;64715;44.760;37.678;2023-07-31T01:42:35;22.36;66.85
74923;HTU21D;64715;44.760;37.678;2023-07-31T01:43:36;22.40;66.38
74923;HTU21D;64715;44.760;37.678;2023-07-31T01:44:37;22.42;66.04
74923;HTU21D;64715;44.760;37.678;2023-07-31T01:45:39;22.48;65.73
74923;HTU21D;64715;44.760;37.678;2023-07-31T01:46:40;22.52;65.53
74923;HTU21D;64715;44.760;37.678;2023-07-31T01:47:43;22.55;65.37
74923;HTU21D;64715;44.760;37.678;2023-07-31T01:48:44;22.61;64.98
74923;HTU21D;64715;44.760;37.678;2023-07-31T01:49:45;22.66;64.72
74923;HTU21D;64715;44.760;37.678;2023-07-31T01:50:46;22.67;64.53
74923;HTU21D;64715;44.760;37.678;2023-07-31T01:51:47;22.72;64.27
74923;HTU21D;64715;44.760;37.678;2023-07-31T01:52:48;22.78;63.92
74923;HTU21D;64715;44.760;37.678;2023-07-31T01:53:50;22.81;63.82
74923;HTU21D;64715;44.760;37.678;2023-07-31T01:54:51;22.84;63.72
74923;HTU21D;64715;44.760;37.678;2023-07-31T01:55:52;22.86;63.45
74923;HTU21D;64715;44.760;37.678;2023-07-31T01:56:53;22.88;63.28
74923;HTU21D;64715;44.760;37.678;2023-07-31T01:57:54;22.90;63.26
74923;HTU21D;64715;44.760;37.678;2023-07-31T01:58:55;22.88;63.23
74923;HTU21D;64715;44.760;37.678;2023-07-31T01:59:56;22.87;63.15
74923;HTU21D;64715;44.760;37.678;2023-07-31T02:00:58;22.86;63.14
74923;HTU21D;64715;44.760;37.678;2023-07-31T02:01:59;22.84;63.04
74923;HTU21D;64715;44.760;37.678;2023-07-31T02:03:00;22.84;63.07
74923;HTU21D;64715;44.760;37.678;2023-07-31T02:04:01;22.84;62.92
74923;HTU21D;64715;44.760;37.678;2023-07-31T02:05:02;22.82;62.95
74923;HTU21D;64715;44.760;37.678;2023-07-31T02:06:04;22.82;62.92
74923;HTU21D;64715;44.760;37.678;2023-07-31T02:07:05;22.81;62.82
74923;HTU21D;64715;44.760;37.678;2023-07-31T02:08:06;22.79;62.70
74923;HTU21D;64715;44.760;37.678;2023-07-31T02:09:08;22.79;62.70
74923;HTU21D;64715;44.760;37.678;2023-07-31T02:10:09;22.77;62.70
74923;HTU21D;64715;44.760;37.678;2023-07-31T02:11:10;22.77;62.43
74923;HTU21D;64715;44.760;37.678;2023-07-31T02:12:14;22.79;62.33
74923;HTU21D;64715;44.760;37.678;2023-07-31T02:13:15;22.81;62.27
74923;HTU21D;64715;44.760;37.678;2023-07-31T02:14:16;22.84;62.14
74923;HTU21D;64715;44.760;37.678;2023-07-31T02:15:17;22.86;62.03
74923;HTU21D;64715;44.760;37.678;2023-07-31T02:16:19;22.87;61.94
74923;HTU21D;64715;44.760;37.678;2023-07-31T02:17:20;22.88;61.96
74923;HTU21D;64715;44.760;37.678;2023-07-31T02:18:21;22.90;61.89
74923;HTU21D;64715;44.760;37.678;2023-07-31T02:19:23;22.90;61.87
74923;HTU21D;64715;44.760;37.678;2023-07-31T02:20:24;22.88;61.73
74923;HTU21D;64715;44.760;37.678;2023-07-31T02:21:25;22.88;61.93
74923;HTU21D;64715;44.760;37.678;2023-07-31T02:22:26;22.86;61.73
74923;HTU21D;64715;44.760;37.678;2023-07-31T02:23:27;22.84;61.67
74923;HTU21D;64715;44.760;37.678;2023-07-31T02:24:28;22.86;61.69
74923;HTU21D;64715;44.760;37.678;2023-07-31T02:25:29;22.87;61.67
74923;HTU21D;64715;44.760;37.678;2023-07-31T02:26:30;22.87;61.76
74923;HTU21D;64715;44.760;37.678;2023-07-31T02:27:31;22.87;61.59
74923;HTU21D;64715;44.760;37.678;2023-07-31T02:28:32;22.87;61.66
74923;HTU21D;64715;44.760;37.678;2023-07-31T02:29:33;22.87;61.58
74923;HTU21D;64715;44.760;37.678;2023-07-31T02:30:34;22.86;61.82
74923;HTU21D;64715;44.760;37.678;2023-07-31T02:31:35;22.85;61.93
74923;HTU21D;64715;44.760;37.678;2023-07-31T02:32:36;22.83;61.91
74923;HTU21D;64715;44.760;37.678;2023-07-31T02:33:37;22.82;62.03
74923;HTU21D;64715;44.760;37.678;2023-07-31T02:34:38;22.79;61.92
74923;HTU21D;64715;44.760;37.678;2023-07-31T02:35:39;22.78;61.93
74923;HTU21D;64715;44.760;37.678;2023-07-31T02:36:40;22.80;61.77
74923;HTU21D;64715;44.760;37.678;2023-07-31T02:37:42;22.84;61.81
74923;HTU21D;64715;44.760;37.678;2023-07-31T02:38:44;22.94;61.81
74923;HTU21D;64715;44.760;37.678;2023-07-31T02:39:46;23.06;61.73
74923;HTU21D;64715;44.760;37.678;2023-07-31T02:40:47;23.15;61.72
74923;HTU21D;64715;44.760;37.678;2023-07-31T02:41:48;23.31;61.34
74923;HTU21D;64715;44.760;37.678;2023-07-31T02:42:49;23.45;61.15
74923;HTU21D;64715;44.760;37.678;2023-07-31T02:43:51;23.64;60.86
74923;HTU21D;64715;44.760;37.678;2023-07-31T02:44:52;23.85;60.36
74923;HTU21D;64715;44.760;37.678;2023-07-31T02:45:56;24.05;59.66
74923;HTU21D;64715;44.760;37.678;2023-07-31T02:46:58;24.25;59.05
74923;HTU21D;64715;44.760;37.678;2023-07-31T02:47:59;24.45;58.60
74923;HTU21D;64715;44.760;37.678;2023-07-31T02:49:00;24.66;58.19
74923;HTU21D;64715;44.760;37.678;2023-07-31T02:50:04;24.89;57.87
74923;HTU21D;64715;44.760;37.678;2023-07-31T02:51:07;25.10;57.32
74923;HTU21D;64715;44.760;37.678;2023-07-31T02:52:08;25.27;57.00
74923;HTU21D;64715;44.760;37.678;2023-07-31T02:53:09;25.42;56.73
74923;HTU21D;64715;44.760;37.678;2023-07-31T02:54:10;25.59;56.52
74923;HTU21D;64715;44.760;37.678;2023-07-31T02:55:11;25.76;55.99
74923;HTU21D;64715;44.760;37.678;2023-07-31T02:56:12;25.93;55.51
74923;HTU21D;64715;44.760;37.678;2023-07-31T02:57:13;26.11;55.20
74923;HTU21D;64715;44.760;37.678;2023-07-31T02:58:14;26.26;54.63
74923;HTU21D;64715;44.760;37.678;2023-07-31T02:59:17;26.42;54.25
74923;HTU21D;64715;44.760;37.678;2023-07-31T03:00:19;26.60;53.63
74923;HTU21D;64715;44.760;37.678;2023-07-31T03:01:20;26.78;53.28
74923;HTU21D;64715;44.760;37.678;2023-07-31T03:02:21;27.00;52.90
74923;HTU21D;64715;44.760;37.678;2023-07-31T03:03:23;27.27;52.56
74923;HTU21D;64715;44.760;37.678;2023-07-31T03:04:24;27.54;52.04
74923;HTU21D;64715;44.760;37.678;2023-07-31T03:05:25;27.80;51.33
74923;HTU21D;64715;44.760;37.678;2023-07-31T03:06:26;28.00;50.79
74923;HTU21D;64715;44.760;37.678;2023-07-31T03:07:27;28.19;50.17
74923;HTU21D;64715;44.760;37.678;2023-07-31T03:08:29;28.41;49.69
74923;HTU21D;64715;44.760;37.678;2023-07-31T03:09:30;28.65;49.35
74923;HTU21D;64715;44.760;37.678;2023-07-31T03:10:31;28.97;48.82
74923;HTU21D;64715;44.760;37.678;2023-07-31T03:11:33;29.22;48.21
74923;HTU21D;64715;44.760;37.678;2023-07-31T03:12:34;29.47;47.81
74923;HTU21D;64715;44.760;37.678;2023-07-31T03:13:35;29.72;47.54
74923;HTU21D;64715;44.760;37.678;2023-07-31T03:14:36;30.00;47.26
74923;HTU21D;64715;44.760;37.678;2023-07-31T03:15:37;30.33;46.89
74923;HTU21D;64715;44.760;37.678;2023-07-31T03:16:38;30.66;46.41
74923;HTU21D;64715;44.760;37.678;2023-07-31T03:17:39;31.02;45.87
74923;HTU21D;64715;44.760;37.678;2023-07-31T03:18:40;31.38;45.24
74923;HTU21D;64715;44.760;37.678;2023-07-31T03:19:42;31.74;44.61
74923;HTU21D;64715;44.760;37.678;2023-07-31T03:20:43;32.12;43.74
74923;HTU21D;64715;44.760;37.678;2023-07-31T03:21:45;32.47;43.08
74923;HTU21D;64715;44.760;37.678;2023-07-31T03:22:45;32.81;41.96
74923;HTU21D;64715;44.760;37.678;2023-07-31T03:23:46;33.11;41.20
74923;HTU21D;64715;44.760;37.678;2023-07-31T03:24:47;33.38;40.30
74923;HTU21D;64715;44.760;37.678;2023-07-31T03:25:59;33.67;40.01
74923;HTU21D;64715;44.760;37.678;2023-07-31T03:27:03;33.93;39.43
74923;HTU21D;64715;44.760;37.678;2023-07-31T03:28:05;34.15;38.70
74923;HTU21D;64715;44.760;37.678;2023-07-31T03:29:05;34.34;38.05
74923;HTU21D;64715;44.760;37.678;2023-07-31T03:30:07;34.51;37.57
74923;HTU21D;64715;44.760;37.678;2023-07-31T03:31:08;34.67;37.12
74923;HTU21D;64715;44.760;37.678;2023-07-31T03:32:09;34.83;36.50
74923;HTU21D;64715;44.760;37.678;2023-07-31T03:33:11;34.93;36.00
74923;HTU21D;64715;44.760;37.678;2023-07-31T03:34:12;35.04;35.73
74923;HTU21D;64715;44.760;37.678;2023-07-31T03:35:13;35.16;35.36
74923;HTU21D;64715;44.760;37.678;2023-07-31T03:36:14;35.30;34.88
74923;HTU21D;64715;44.760;37.678;2023-07-31T03:37:15;35.41;34.62
74923;HTU21D;64715;44.760;37.678;2023-07-31T03:38:16;35.53;34.47
74923;HTU21D;64715;44.760;37.678;2023-07-31T03:39:17;35.70;34.24
74923;HTU21D;64715;44.760;37.678;2023-07-31T03:40:18;35.89;33.76
74923;HTU21D;64715;44.760;37.678;2023-07-31T03:41:19;36.10;33.62
74923;HTU21D;64715;44.760;37.678;2023-07-31T03:42:20;36.33;33.26
74923;HTU21D;64715;44.760;37.678;2023-07-31T03:43:20;36.56;32.77
74923;HTU21D;64715;44.760;37.678;2023-07-31T03:44:21;36.77;32.19
74923;HTU21D;64715;44.760;37.678;2023-07-31T03:45:22;36.96;32.06
74923;HTU21D;64715;44.760;37.678;2023-07-31T03:46:26;37.19;31.61
74923;HTU21D;64715;44.760;37.678;2023-07-31T03:47:28;37.43;31.61
74923;HTU21D;64715;44.760;37.678;2023-07-31T03:48:29;37.69;30.93
74923;HTU21D;64715;44.760;37.678;2023-07-31T03:49:30;37.93;30.57
74923;HTU21D;64715;44.760;37.678;2023-07-31T03:50:32;38.11;29.90
74923;HTU21D;64715;44.760;37.678;2023-07-31T03:51:33;38.26;29.42
74923;HTU21D;64715;44.760;37.678;2023-07-31T03:52:34;38.37;29.06
74923;HTU21D;64715;44.760;37.678;2023-07-31T03:53:35;38.45;28.68
74923;HTU21D;64715;44.760;37.678;2023-07-31T03:54:36;38.53;28.49
74923;HTU21D;64715;44.760;37.678;2023-07-31T03:55:37;38.65;28.07
74923;HTU21D;64715;44.760;37.678;2023-07-31T03:56:38;38.74;27.76
74923;HTU21D;64715;44.760;37.678;2023-07-31T03:57:39;38.75;27.49
74923;HTU21D;64715;44.760;37.678;2023-07-31T03:58:40;38.69;27.10
74923;HTU21D;64715;44.760;37.678;2023-07-31T03:59:41;38.62;27.11
74923;HTU21D;64715;44.760;37.678;2023-07-31T04:00:43;38.62;27.23
74923;HTU21D;64715;44.760;37.678;2023-07-31T04:01:44;38.66;26.98
74923;HTU21D;64715;44.760;37.678;2023-07-31T04:02:45;38.79;26.83
74923;HTU21D;64715;44.760;37.678;2023-07-31T04:03:46;38.94;26.71
74923;HTU21D;64715;44.760;37.678;2023-07-31T04:04:47;39.08;26.13
74923;HTU21D;64715;44.760;37.678;2023-07-31T04:05:48;39.13;25.86
74923;HTU21D;64715;44.760;37.678;2023-07-31T04:06:49;39.10;25.65
74923;HTU21D;64715;44.760;37.678;2023-07-31T04:07:50;39.05;25.54
74923;HTU21D;64715;44.760;37.678;2023-07-31T04:08:51;39.10;25.62
74923;HTU21D;64715;44.760;37.678;2023-07-31T04:09:52;39.18;25.20
74923;HTU21D;64715;44.760;37.678;2023-07-31T04:10:53;39.18;24.87
74923;HTU21D;64715;44.760;37.678;2023-07-31T04:11:54;39.10;24.73
74923;HTU21D;64715;44.760;37.678;2023-07-31T04:12:55;39.00;24.55
74923;HTU21D;64715;44.760;37.678;2023-07-31T04:13:56;38.89;24.58
74923;HTU21D;64715;44.760;37.678;2023-07-31T04:14:57;38.80;24.69
74923;HTU21D;64715;44.760;37.678;2023-07-31T04:15:58;38.67;24.51
74923;HTU21D;64715;44.760;37.678;2023-07-31T04:16:59;38.49;24.53
74923;HTU21D;64715;44.760;37.678;2023-07-31T04:18:00;38.28;24.89
74923;HTU21D;64715;44.760;37.678;2023-07-31T04:19:01;38.12;24.97
74923;HTU21D;64715;44.760;37.678;2023-07-31T04:20:03;38.00;25.15
74923;HTU21D;64715;44.760;37.678;2023-07-31T04:21:04;37.89;25.20
74923;HTU21D;64715;44.760;37.678;2023-07-31T04:22:05;37.84;25.22
74923;HTU21D;64715;44.760;37.678;2023-07-31T04:23:06;37.82;25.32
74923;HTU21D;64715;44.760;37.678;2023-07-31T04:24:07;37.97;25.49
74923;HTU21D;64715;44.760;37.678;2023-07-31T04:25:08;38.15;25.36
74923;HTU21D;64715;44.760;37.678;2023-07-31T04:26:09;38.24;25.11
74923;HTU21D;64715;44.760;37.678;2023-07-31T04:27:10;38.33;25.20
74923;HTU21D;64715;44.760;37.678;2023-07-31T04:28:11;38.43;25.20
74923;HTU21D;64715;44.760;37.678;2023-07-31T04:29:12;38.59;25.11
74923;HTU21D;64715;44.760;37.678;2023-07-31T04:30:15;38.79;24.91
74923;HTU21D;64715;44.760;37.678;2023-07-31T04:31:16;38.86;24.58
74923;HTU21D;64715;44.760;37.678;2023-07-31T04:32:17;38.92;24.62
74923;HTU21D;64715;44.760;37.678;2023-07-31T04:33:17;39.04;24.53
74923;HTU21D;64715;44.760;37.678;2023-07-31T04:34:19;39.19;24.34
74923;HTU21D;64715;44.760;37.678;2023-07-31T04:35:20;39.25;24.06
74923;HTU21D;64715;44.760;37.678;2023-07-31T04:36:20;39.25;23.88
74923;HTU21D;64715;44.760;37.678;2023-07-31T04:37:21;39.23;23.95
74923;HTU21D;64715;44.760;37.678;2023-07-31T04:38:22;39.24;24.04
74923;HTU21D;64715;44.760;37.678;2023-07-31T04:39:23;39.28;24.03
74923;HTU21D;64715;44.760;37.678;2023-07-31T04:40:24;39.37;23.92
74923;HTU21D;64715;44.760;37.678;2023-07-31T04:41:26;39.40;23.79
74923;HTU21D;64715;44.760;37.678;2023-07-31T04:42:27;39.43;23.59
74923;HTU21D;64715;44.760;37.678;2023-07-31T04:43:28;39.48;23.53
74923;HTU21D;64715;44.760;37.678;2023-07-31T04:44:29;39.45;23.33
74923;HTU21D;64715;44.760;37.678;2023-07-31T04:45:31;39.37;23.37
74923;HTU21D;64715;44.760;37.678;2023-07-31T04:46:32;39.19;23.53
74923;HTU21D;64715;44.760;37.678;2023-07-31T04:47:33;39.06;23.72
74923;HTU21D;64715;44.760;37.678;2023-07-31T04:48:34;38.95;23.69
74923;HTU21D;64715;44.760;37.678;2023-07-31T04:49:35;38.81;23.83
74923;HTU21D;64715;44.760;37.678;2023-07-31T04:50:36;38.61;23.98
74923;HTU21D;64715;44.760;37.678;2023-07-31T04:51:37;38.39;24.28
74923;HTU21D;64715;44.760;37.678;2023-07-31T04:52:38;38.32;24.40
74923;HTU21D;64715;44.760;37.678;2023-07-31T04:53:39;38.25;24.45
74923;HTU21D;64715;44.760;37.678;2023-07-31T04:54:40;38.24;24.42
74923;HTU21D;64715;44.760;37.678;2023-07-31T04:55:41;38.25;24.44
74923;HTU21D;64715;44.760;37.678;2023-07-31T04:56:42;38.30;24.48
74923;HTU21D;64715;44.760;37.678;2023-07-31T04:57:43;38.36;24.39
74923;HTU21D;64715;44.760;37.678;2023-07-31T04:58:46;38.39;24.50
74923;HTU21D;64715;44.760;37.678;2023-07-31T04:59:46;38.50;24.49
74923;HTU21D;64715;44.760;37.678;2023-07-31T05:00:47;38.68;24.40
74923;HTU21D;64715;44.760;37.678;2023-07-31T05:01:48;38.86;24.21
74923;HTU21D;64715;44.760;37.678;2023-07-31T05:02:49;39.07;23.88
74923;HTU21D;64715;44.760;37.678;2023-07-31T05:03:50;39.23;23.60
74923;HTU21D;64715;44.760;37.678;2023-07-31T05:04:51;39.41;23.54
74923;HTU21D;64715;44.760;37.678;2023-07-31T05:05:52;39.58;23.36
74923;HTU21D;64715;44.760;37.678;2023-07-31T05:06:53;39.73;23.24
74923;HTU21D;64715;44.760;37.678;2023-07-31T05:07:54;39.85;22.96
74923;HTU21D;64715;44.760;37.678;2023-07-31T05:08:55;39.97;22.82
74923;HTU21D;64715;44.760;37.678;2023-07-31T05:09:56;40.10;22.72
74923;HTU21D;64715;44.760;37.678;2023-07-31T05:10:57;40.25;22.41
74923;HTU21D;64715;44.760;37.678;2023-07-31T05:11:58;40.39;22.21
74923;HTU21D;64715;44.760;37.678;2023-07-31T05:12:59;40.53;22.08
74923;HTU21D;64715;44.760;37.678;2023-07-31T05:14:00;40.68;22.11
74923;HTU21D;64715;44.760;37.678;2023-07-31T05:15:01;40.88;22.05
74923;HTU21D;64715;44.760;37.678;2023-07-31T05:16:02;41.11;21.84
74923;HTU21D;64715;44.760;37.678;2023-07-31T05:17:04;41.34;21.67
74923;HTU21D;64715;44.760;37.678;2023-07-31T05:18:05;41.57;21.52
74923;HTU21D;64715;44.760;37.678;2023-07-31T05:19:06;41.80;21.32
74923;HTU21D;64715;44.760;37.678;2023-07-31T05:20:08;42.02;21.05
74923;HTU21D;64715;44.760;37.678;2023-07-31T05:21:09;42.23;20.63
74923;HTU21D;64715;44.760;37.678;2023-07-31T05:22:10;42.41;20.48
74923;HTU21D;64715;44.760;37.678;2023-07-31T05:23:11;42.48;19.98
74923;HTU21D;64715;44.760;37.678;2023-07-31T05:24:12;42.44;19.88
74923;HTU21D;64715;44.760;37.678;2023-07-31T05:25:14;42.29;19.95
74923;HTU21D;64715;44.760;37.678;2023-07-31T05:26:15;42.17;19.92
74923;HTU21D;64715;44.760;37.678;2023-07-31T05:27:15;41.98;19.97
74923;HTU21D;64715;44.760;37.678;2023-07-31T05:28:21;41.85;20.27
74923;HTU21D;64715;44.760;37.678;2023-07-31T05:29:22;41.81;20.21
74923;HTU21D;64715;44.760;37.678;2023-07-31T05:30:23;41.69;20.24
74923;HTU21D;64715;44.760;37.678;2023-07-31T05:31:25;41.54;20.53
74923;HTU21D;64715;44.760;37.678;2023-07-31T05:32:26;41.45;20.73
74923;HTU21D;64715;44.760;37.678;2023-07-31T05:33:27;41.41;20.69
74923;HTU21D;64715;44.760;37.678;2023-07-31T05:34:28;41.40;20.56
74923;HTU21D;64715;44.760;37.678;2023-07-31T05:35:29;41.44;20.57
74923;HTU21D;64715;44.760;37.678;2023-07-31T05:36:30;41.48;20.79
74923;HTU21D;64715;44.760;37.678;2023-07-31T05:37:33;41.55;20.76
74923;HTU21D;64715;44.760;37.678;2023-07-31T05:38:33;41.64;20.70
74923;HTU21D;64715;44.760;37.678;2023-07-31T05:39:34;41.70;20.56
74923;HTU21D;64715;44.760;37.678;2023-07-31T05:40:35;41.74;20.63
74923;HTU21D;64715;44.760;37.678;2023-07-31T05:41:36;41.72;20.41
74923;HTU21D;64715;44.760;37.678;2023-07-31T05:42:38;41.63;20.66
74923;HTU21D;64715;44.760;37.678;2023-07-31T05:43:39;41.51;20.72
74923;HTU21D;64715;44.760;37.678;2023-07-31T05:44:40;41.45;20.80
74923;HTU21D;64715;44.760;37.678;2023-07-31T05:45:44;41.29;20.60
74923;HTU21D;64715;44.760;37.678;2023-07-31T05:46:45;41.05;20.89
74923;HTU21D;64715;44.760;37.678;2023-07-31T05:47:46;40.78;21.29
74923;HTU21D;64715;44.760;37.678;2023-07-31T05:48:47;40.53;21.28
74923;HTU21D;64715;44.760;37.678;2023-07-31T05:49:48;40.26;21.62
74923;HTU21D;64715;44.760;37.678;2023-07-31T05:50:50;40.04;22.03
74923;HTU21D;64715;44.760;37.678;2023-07-31T05:51:51;39.84;22.11
74923;HTU21D;64715;44.760;37.678;2023-07-31T05:52:52;39.64;22.48
74923;HTU21D;64715;44.760;37.678;2023-07-31T05:53:53;39.48;22.80
74923;HTU21D;64715;44.760;37.678;2023-07-31T05:54:54;39.32;22.69
74923;HTU21D;64715;44.760;37.678;2023-07-31T05:55:55;39.08;23.11
74923;HTU21D;64715;44.760;37.678;2023-07-31T05:56:56;38.90;23.45
74923;HTU21D;64715;44.760;37.678;2023-07-31T05:57:57;38.71;23.46
74923;HTU21D;64715;44.760;37.678;2023-07-31T05:58:58;38.53;23.68
74923;HTU21D;64715;44.760;37.678;2023-07-31T05:59:59;38.36;23.88
74923;HTU21D;64715;44.760;37.678;2023-07-31T06:01:00;38.24;24.16
74923;HTU21D;64715;44.760;37.678;2023-07-31T06:02:01;38.15;24.57
74923;HTU21D;64715;44.760;37.678;2023-07-31T06:03:03;38.08;24.58
74923;HTU21D;64715;44.760;37.678;2023-07-31T06:04:05;38.01;24.53
74923;HTU21D;64715;44.760;37.678;2023-07-31T06:05:06;37.86;24.66
74923;HTU21D;64715;44.760;37.678;2023-07-31T06:06:07;37.62;24.85
74923;HTU21D;64715;44.760;37.678;2023-07-31T06:07:08;37.33;25.09
74923;HTU21D;64715;44.760;37.678;2023-07-31T06:08:09;37.03;25.20
74923;HTU21D;64715;44.760;37.678;2023-07-31T06:09:10;36.72;25.49
74923;HTU21D;64715;44.760;37.678;2023-07-31T06:10:13;36.38;25.84
74923;HTU21D;64715;44.760;37.678;2023-07-31T06:11:14;36.09;26.26
74923;HTU21D;64715;44.760;37.678;2023-07-31T06:12:15;35.80;26.62
74923;HTU21D;64715;44.760;37.678;2023-07-31T06:13:18;35.55;27.19
74923;HTU21D;64715;44.760;37.678;2023-07-31T06:14:19;35.33;27.42
74923;HTU21D;64715;44.760;37.678;2023-07-31T06:15:20;35.09;27.78
74923;HTU21D;64715;44.760;37.678;2023-07-31T06:16:23;34.85;28.02
74923;HTU21D;64715;44.760;37.678;2023-07-31T06:17:24;34.66;28.32
74923;HTU21D;64715;44.760;37.678;2023-07-31T06:18:25;34.44;28.75
74923;HTU21D;64715;44.760;37.678;2023-07-31T06:19:26;34.24;28.87
74923;HTU21D;64715;44.760;37.678;2023-07-31T06:20:26;34.04;29.23
74923;HTU21D;64715;44.760;37.678;2023-07-31T06:21:27;33.85;29.67
74923;HTU21D;64715;44.760;37.678;2023-07-31T06:22:28;33.68;29.84
74923;HTU21D;64715;44.760;37.678;2023-07-31T06:23:29;33.52;30.03
74923;HTU21D;64715;44.760;37.678;2023-07-31T06:24:30;33.35;30.29